sensor_id;sensor_type;location;lat;lon;timestamp;P1;durP1;ratioP1;P2;durP2;ratioP2
18657;SDS011;9458;50.942;5.074;2023-04-06T00:01:29;19.63;;;11.27;;
18657;SDS011;9458;50.942;5.074;2023-04-06T00:03:56;18.80;;;10.53;;
18657;SDS011;9458;50.942;5.074;2023-04-06T00:06:26;20.27;;;10.53;;
18657;SDS011;9458;50.942;5.074;2023-04-06T00:08:53;20.07;;;11.37;;
18657;SDS011;9458;50.942;5.074;2023-04-06T00:11:22;20.37;;;11.70;;
18657;SDS011;9458;50.942;5.074;2023-04-06T00:13:50;19.73;;;10.87;;
18657;SDS011;9458;50.942;5.074;2023-04-06T00:16:17;19.63;;;11.07;;
18657;SDS011;9458;50.942;5.074;2023-04-06T00:18:46;22.13;;;12.30;;
18657;SDS011;9458;50.942;5.074;2023-04-06T00:21:14;20.63;;;11.73;;
18657;SDS011;9458;50.942;5.074;2023-04-06T00:23:41;22.87;;;12.60;;
18657;SDS011;9458;50.942;5.074;2023-04-06T00:26:08;19.60;;;11.20;;
18657;SDS011;9458;50.942;5.074;2023-04-06T00:28:36;17.70;;;10.90;;
18657;SDS011;9458;50.942;5.074;2023-04-06T00:31:03;21.37;;;11.97;;
18657;SDS011;9458;50.942;5.074;2023-04-06T00:33:31;19.87;;;11.90;;
18657;SDS011;9458;50.942;5.074;2023-04-06T00:36:01;19.10;;;11.70;;
18657;SDS011;9458;50.942;5.074;2023-04-06T00:38:28;22.17;;;12.63;;
18657;SDS011;9458;50.942;5.074;2023-04-06T00:40:56;19.20;;;11.23;;
18657;SDS011;9458;50.942;5.074;2023-04-06T00:43:23;20.93;;;12.30;;
18657;SDS011;9458;50.942;5.074;2023-04-06T00:45:51;22.20;;;12.40;;
18657;SDS011;9458;50.942;5.074;2023-04-06T00:48:18;21.57;;;11.70;;
18657;SDS011;9458;50.942;5.074;2023-04-06T00:50:45;18.80;;;11.43;;
18657;SDS011;9458;50.942;5.074;2023-04-06T00:53:14;23.43;;;12.77;;
18657;SDS011;9458;50.942;5.074;2023-04-06T00:55:42;21.20;;;12.43;;
18657;SDS011;9458;50.942;5.074;2023-04-06T00:58:10;24.13;;;13.07;;
18657;SDS011;9458;50.942;5.074;2023-04-06T01:00:37;27.10;;;13.87;;
18657;SDS011;9458;50.942;5.074;2023-04-06T01:03:04;26.03;;;12.57;;
18657;SDS011;9458;50.942;5.074;2023-04-06T01:05:32;24.97;;;13.50;;
18657;SDS011;9458;50.942;5.074;2023-04-06T01:08:04;20.50;;;12.13;;
18657;SDS011;9458;50.942;5.074;2023-04-06T01:10:33;22.87;;;13.13;;
18657;SDS011;9458;50.942;5.074;2023-04-06T01:13:01;24.13;;;14.07;;
18657;SDS011;9458;50.942;5.074;2023-04-06T01:15:29;26.07;;;13.93;;
18657;SDS011;9458;50.942;5.074;2023-04-06T01:17:56;21.57;;;12.73;;
18657;SDS011;9458;50.942;5.074;2023-04-06T01:20:23;24.00;;;13.50;;
18657;SDS011;9458;50.942;5.074;2023-04-06T01:22:52;24.57;;;13.80;;
18657;SDS011;9458;50.942;5.074;2023-04-06T01:25:20;23.67;;;13.33;;
18657;SDS011;9458;50.942;5.074;2023-04-06T01:27:47;24.07;;;13.80;;
18657;SDS011;9458;50.942;5.074;2023-04-06T01:30:14;26.47;;;12.97;;
18657;SDS011;9458;50.942;5.074;2023-04-06T01:32:42;20.87;;;12.90;;
18657;SDS011;9458;50.942;5.074;2023-04-06T01:35:09;28.50;;;13.13;;
18657;SDS011;9458;50.942;5.074;2023-04-06T01:37:37;20.60;;;12.63;;
18657;SDS011;9458;50.942;5.074;2023-04-06T01:40:07;25.03;;;13.03;;
18657;SDS011;9458;50.942;5.074;2023-04-06T01:42:37;24.43;;;13.67;;
18657;SDS011;9458;50.942;5.074;2023-04-06T01:45:05;21.37;;;12.87;;
18657;SDS011;9458;50.942;5.074;2023-04-06T01:47:32;25.43;;;13.40;;
18657;SDS011;9458;50.942;5.074;2023-04-06T01:50:00;28.83;;;13.23;;
18657;SDS011;9458;50.942;5.074;2023-04-06T01:52:27;23.77;;;12.67;;
18657;SDS011;9458;50.942;5.074;2023-04-06T01:54:55;24.30;;;12.90;;
18657;SDS011;9458;50.942;5.074;2023-04-06T01:57:23;31.03;;;13.27;;
18657;SDS011;9458;50.942;5.074;2023-04-06T01:59:51;23.07;;;13.20;;
18657;SDS011;9458;50.942;5.074;2023-04-06T02:02:18;25.80;;;13.53;;
18657;SDS011;9458;50.942;5.074;2023-04-06T02:04:45;20.70;;;12.47;;
18657;SDS011;9458;50.942;5.074;2023-04-06T02:07:13;20.80;;;12.43;;
18657;SDS011;9458;50.942;5.074;2023-04-06T02:09:40;27.83;;;13.83;;
18657;SDS011;9458;50.942;5.074;2023-04-06T02:12:07;24.50;;;13.93;;
18657;SDS011;9458;50.942;5.074;2023-04-06T02:14:36;21.03;;;12.83;;
18657;SDS011;9458;50.942;5.074;2023-04-06T02:17:03;23.57;;;13.57;;
18657;SDS011;9458;50.942;5.074;2023-04-06T02:19:30;24.43;;;12.53;;
18657;SDS011;9458;50.942;5.074;2023-04-06T02:21:58;24.20;;;13.20;;
18657;SDS011;9458;50.942;5.074;2023-04-06T02:24:25;21.80;;;12.87;;
18657;SDS011;9458;50.942;5.074;2023-04-06T02:26:52;21.93;;;12.97;;
18657;SDS011;9458;50.942;5.074;2023-04-06T02:29:19;27.40;;;13.93;;
18657;SDS011;9458;50.942;5.074;2023-04-06T02:31:48;21.23;;;12.87;;
18657;SDS011;9458;50.942;5.074;2023-04-06T02:34:15;18.73;;;12.43;;
18657;SDS011;9458;50.942;5.074;2023-04-06T02:36:44;24.27;;;13.27;;
18657;SDS011;9458;50.942;5.074;2023-04-06T02:39:11;25.43;;;13.30;;
18657;SDS011;9458;50.942;5.074;2023-04-06T02:41:42;20.53;;;12.67;;
18657;SDS011;9458;50.942;5.074;2023-04-06T02:44:09;25.27;;;14.10;;
18657;SDS011;9458;50.942;5.074;2023-04-06T02:46:37;21.70;;;12.57;;
18657;SDS011;9458;50.942;5.074;2023-04-06T02:49:07;22.23;;;13.00;;
18657;SDS011;9458;50.942;5.074;2023-04-06T02:51:34;24.27;;;13.30;;
18657;SDS011;9458;50.942;5.074;2023-04-06T02:54:01;18.17;;;11.57;;
18657;SDS011;9458;50.942;5.074;2023-04-06T02:56:28;23.10;;;12.60;;
18657;SDS011;9458;50.942;5.074;2023-04-06T02:58:57;21.50;;;12.00;;
18657;SDS011;9458;50.942;5.074;2023-04-06T03:01:25;20.03;;;12.40;;
18657;SDS011;9458;50.942;5.074;2023-04-06T03:03:53;19.47;;;12.00;;
18657;SDS011;9458;50.942;5.074;2023-04-06T03:06:22;22.17;;;12.93;;
18657;SDS011;9458;50.942;5.074;2023-04-06T03:08:49;20.03;;;12.47;;
18657;SDS011;9458;50.942;5.074;2023-04-06T03:11:17;21.50;;;12.60;;
18657;SDS011;9458;50.942;5.074;2023-04-06T03:13:44;22.67;;;13.33;;
18657;SDS011;9458;50.942;5.074;2023-04-06T03:16:11;23.13;;;11.70;;
18657;SDS011;9458;50.942;5.074;2023-04-06T03:18:41;18.47;;;11.30;;
18657;SDS011;9458;50.942;5.074;2023-04-06T03:21:09;22.10;;;13.10;;
18657;SDS011;9458;50.942;5.074;2023-04-06T03:23:38;22.70;;;12.73;;
18657;SDS011;9458;50.942;5.074;2023-04-06T03:26:06;21.73;;;12.43;;
18657;SDS011;9458;50.942;5.074;2023-04-06T03:28:33;27.17;;;12.77;;
18657;SDS011;9458;50.942;5.074;2023-04-06T03:31:01;21.37;;;12.70;;
18657;SDS011;9458;50.942;5.074;2023-04-06T03:33:28;23.30;;;12.83;;
18657;SDS011;9458;50.942;5.074;2023-04-06T03:35:57;22.77;;;12.13;;
18657;SDS011;9458;50.942;5.074;2023-04-06T03:38:24;20.33;;;13.00;;
18657;SDS011;9458;50.942;5.074;2023-04-06T03:40:53;24.60;;;14.53;;
18657;SDS011;9458;50.942;5.074;2023-04-06T03:43:20;23.63;;;13.47;;
18657;SDS011;9458;50.942;5.074;2023-04-06T03:45:47;23.53;;;13.53;;
18657;SDS011;9458;50.942;5.074;2023-04-06T03:48:14;25.13;;;13.53;;
18657;SDS011;9458;50.942;5.074;2023-04-06T03:50:41;24.03;;;13.57;;
18657;SDS011;9458;50.942;5.074;2023-04-06T03:53:09;26.40;;;13.77;;
18657;SDS011;9458;50.942;5.074;2023-04-06T03:55:36;28.43;;;14.13;;
18657;SDS011;9458;50.942;5.074;2023-04-06T03:58:04;20.47;;;12.63;;
18657;SDS011;9458;50.942;5.074;2023-04-06T04:00:31;21.83;;;12.03;;
18657;SDS011;9458;50.942;5.074;2023-04-06T04:02:59;22.00;;;12.27;;
18657;SDS011;9458;50.942;5.074;2023-04-06T04:05:27;22.70;;;13.00;;
18657;SDS011;9458;50.942;5.074;2023-04-06T04:07:55;21.30;;;12.90;;
18657;SDS011;9458;50.942;5.074;2023-04-06T04:10:22;24.30;;;12.50;;
18657;SDS011;9458;50.942;5.074;2023-04-06T04:12:50;21.10;;;12.60;;
18657;SDS011;9458;50.942;5.074;2023-04-06T04:15:18;24.60;;;13.00;;
18657;SDS011;9458;50.942;5.074;2023-04-06T04:17:46;19.33;;;12.43;;
18657;SDS011;9458;50.942;5.074;2023-04-06T04:20:14;18.53;;;12.00;;
18657;SDS011;9458;50.942;5.074;2023-04-06T04:22:42;20.43;;;11.77;;
18657;SDS011;9458;50.942;5.074;2023-04-06T04:25:09;21.97;;;12.27;;
18657;SDS011;9458;50.942;5.074;2023-04-06T04:27:37;21.80;;;12.50;;
18657;SDS011;9458;50.942;5.074;2023-04-06T04:30:05;18.83;;;12.37;;
18657;SDS011;9458;50.942;5.074;2023-04-06T04:32:35;21.13;;;13.07;;
18657;SDS011;9458;50.942;5.074;2023-04-06T04:35:03;19.57;;;12.27;;
18657;SDS011;9458;50.942;5.074;2023-04-06T04:37:30;21.53;;;12.97;;
18657;SDS011;9458;50.942;5.074;2023-04-06T04:39:59;24.03;;;13.60;;
18657;SDS011;9458;50.942;5.074;2023-04-06T04:42:27;20.60;;;12.87;;
18657;SDS011;9458;50.942;5.074;2023-04-06T04:44:55;21.77;;;13.60;;
18657;SDS011;9458;50.942;5.074;2023-04-06T04:47:22;21.80;;;12.73;;
18657;SDS011;9458;50.942;5.074;2023-04-06T04:49:50;24.07;;;13.73;;
18657;SDS011;9458;50.942;5.074;2023-04-06T04:52:17;24.80;;;13.53;;
18657;SDS011;9458;50.942;5.074;2023-04-06T04:54:45;20.70;;;12.93;;
18657;SDS011;9458;50.942;5.074;2023-04-06T04:57:12;21.03;;;13.17;;
18657;SDS011;9458;50.942;5.074;2023-04-06T04:59:40;26.00;;;13.70;;
18657;SDS011;9458;50.942;5.074;2023-04-06T05:02:09;21.17;;;13.03;;
18657;SDS011;9458;50.942;5.074;2023-04-06T05:04:36;20.03;;;12.80;;
18657;SDS011;9458;50.942;5.074;2023-04-06T05:07:05;20.87;;;12.90;;
18657;SDS011;9458;50.942;5.074;2023-04-06T05:09:33;21.97;;;13.23;;
18657;SDS011;9458;50.942;5.074;2023-04-06T05:12:01;25.57;;;12.97;;
18657;SDS011;9458;50.942;5.074;2023-04-06T05:14:28;21.23;;;12.83;;
18657;SDS011;9458;50.942;5.074;2023-04-06T05:16:56;21.03;;;13.00;;
18657;SDS011;9458;50.942;5.074;2023-04-06T05:19:23;21.00;;;13.60;;
18657;SDS011;9458;50.942;5.074;2023-04-06T05:21:50;22.47;;;13.10;;
18657;SDS011;9458;50.942;5.074;2023-04-06T05:24:19;23.17;;;12.63;;
18657;SDS011;9458;50.942;5.074;2023-04-06T05:26:47;23.50;;;13.47;;
18657;SDS011;9458;50.942;5.074;2023-04-06T05:29:15;21.67;;;12.73;;
18657;SDS011;9458;50.942;5.074;2023-04-06T05:31:43;21.10;;;12.77;;
18657;SDS011;9458;50.942;5.074;2023-04-06T05:34:11;22.07;;;13.17;;
18657;SDS011;9458;50.942;5.074;2023-04-06T05:36:38;22.10;;;13.00;;
18657;SDS011;9458;50.942;5.074;2023-04-06T05:39:06;22.77;;;12.77;;
18657;SDS011;9458;50.942;5.074;2023-04-06T05:41:35;20.80;;;12.57;;
18657;SDS011;9458;50.942;5.074;2023-04-06T05:44:02;21.67;;;13.27;;
18657;SDS011;9458;50.942;5.074;2023-04-06T05:46:29;22.23;;;13.27;;
18657;SDS011;9458;50.942;5.074;2023-04-06T05:48:57;22.97;;;13.60;;
18657;SDS011;9458;50.942;5.074;2023-04-06T05:51:25;24.53;;;14.17;;
18657;SDS011;9458;50.942;5.074;2023-04-06T05:53:52;24.27;;;14.47;;
18657;SDS011;9458;50.942;5.074;2023-04-06T05:56:20;24.27;;;14.13;;
18657;SDS011;9458;50.942;5.074;2023-04-06T05:58:48;22.87;;;13.13;;
18657;SDS011;9458;50.942;5.074;2023-04-06T06:01:15;23.33;;;13.50;;
18657;SDS011;9458;50.942;5.074;2023-04-06T06:03:43;23.67;;;13.73;;
18657;SDS011;9458;50.942;5.074;2023-04-06T06:06:10;25.70;;;12.90;;
18657;SDS011;9458;50.942;5.074;2023-04-06T06:08:37;19.43;;;12.50;;
18657;SDS011;9458;50.942;5.074;2023-04-06T06:11:04;19.40;;;12.47;;
18657;SDS011;9458;50.942;5.074;2023-04-06T06:13:31;23.30;;;13.80;;
18657;SDS011;9458;50.942;5.074;2023-04-06T06:16:00;21.03;;;12.87;;
18657;SDS011;9458;50.942;5.074;2023-04-06T06:18:30;23.13;;;12.90;;
18657;SDS011;9458;50.942;5.074;2023-04-06T06:20:57;22.13;;;13.10;;
18657;SDS011;9458;50.942;5.074;2023-04-06T06:23:25;20.33;;;12.77;;
18657;SDS011;9458;50.942;5.074;2023-04-06T06:25:52;20.77;;;11.97;;
18657;SDS011;9458;50.942;5.074;2023-04-06T06:28:22;20.37;;;12.83;;
18657;SDS011;9458;50.942;5.074;2023-04-06T06:30:51;21.13;;;13.20;;
18657;SDS011;9458;50.942;5.074;2023-04-06T06:33:20;22.37;;;13.17;;
18657;SDS011;9458;50.942;5.074;2023-04-06T06:35:48;22.60;;;13.43;;
18657;SDS011;9458;50.942;5.074;2023-04-06T06:38:16;21.50;;;13.73;;
18657;SDS011;9458;50.942;5.074;2023-04-06T06:40:44;19.07;;;12.50;;
18657;SDS011;9458;50.942;5.074;2023-04-06T06:43:12;20.83;;;12.63;;
18657;SDS011;9458;50.942;5.074;2023-04-06T06:45:39;21.10;;;12.37;;
18657;SDS011;9458;50.942;5.074;2023-04-06T06:48:07;20.00;;;12.23;;
18657;SDS011;9458;50.942;5.074;2023-04-06T06:50:39;26.23;;;14.80;;
18657;SDS011;9458;50.942;5.074;2023-04-06T06:53:07;18.87;;;11.10;;
18657;SDS011;9458;50.942;5.074;2023-04-06T06:55:34;16.17;;;11.32;;
18657;SDS011;9458;50.942;5.074;2023-04-06T06:58:01;16.58;;;11.00;;
18657;SDS011;9458;50.942;5.074;2023-04-06T07:00:28;18.08;;;10.75;;
18657;SDS011;9458;50.942;5.074;2023-04-06T07:02:55;17.73;;;11.50;;
18657;SDS011;9458;50.942;5.074;2023-04-06T07:05:23;16.73;;;10.48;;
18657;SDS011;9458;50.942;5.074;2023-04-06T07:07:55;18.95;;;11.05;;
18657;SDS011;9458;50.942;5.074;2023-04-06T07:10:23;15.80;;;11.40;;
18657;SDS011;9458;50.942;5.074;2023-04-06T07:12:51;14.93;;;10.10;;
18657;SDS011;9458;50.942;5.074;2023-04-06T07:15:18;13.82;;;10.30;;
18657;SDS011;9458;50.942;5.074;2023-04-06T07:17:45;15.35;;;9.52;;
18657;SDS011;9458;50.942;5.074;2023-04-06T07:20:13;14.05;;;10.30;;
18657;SDS011;9458;50.942;5.074;2023-04-06T07:22:42;15.27;;;9.70;;
18657;SDS011;9458;50.942;5.074;2023-04-06T07:25:11;14.95;;;9.80;;
18657;SDS011;9458;50.942;5.074;2023-04-06T07:27:39;13.70;;;10.25;;
18657;SDS011;9458;50.942;5.074;2023-04-06T07:30:07;15.23;;;9.82;;
18657;SDS011;9458;50.942;5.074;2023-04-06T07:32:35;14.35;;;10.13;;
18657;SDS011;9458;50.942;5.074;2023-04-06T07:35:05;19.38;;;10.13;;
18657;SDS011;9458;50.942;5.074;2023-04-06T07:37:32;14.85;;;10.02;;
18657;SDS011;9458;50.942;5.074;2023-04-06T07:40:00;19.08;;;10.30;;
18657;SDS011;9458;50.942;5.074;2023-04-06T07:42:29;14.18;;;9.93;;
18657;SDS011;9458;50.942;5.074;2023-04-06T07:44:58;15.18;;;10.73;;
18657;SDS011;9458;50.942;5.074;2023-04-06T07:47:25;18.55;;;10.07;;
18657;SDS011;9458;50.942;5.074;2023-04-06T07:49:54;16.27;;;10.10;;
18657;SDS011;9458;50.942;5.074;2023-04-06T07:52:22;14.40;;;10.50;;
18657;SDS011;9458;50.942;5.074;2023-04-06T07:54:49;16.55;;;10.68;;
18657;SDS011;9458;50.942;5.074;2023-04-06T07:57:17;13.30;;;9.88;;
18657;SDS011;9458;50.942;5.074;2023-04-06T07:59:51;14.77;;;9.52;;
18657;SDS011;9458;50.942;5.074;2023-04-06T08:02:19;13.45;;;9.88;;
18657;SDS011;9458;50.942;5.074;2023-04-06T08:04:48;15.60;;;9.60;;
18657;SDS011;9458;50.942;5.074;2023-04-06T08:07:15;14.65;;;10.55;;
18657;SDS011;9458;50.942;5.074;2023-04-06T08:09:43;12.52;;;9.38;;
18657;SDS011;9458;50.942;5.074;2023-04-06T08:12:11;16.98;;;10.18;;
18657;SDS011;9458;50.942;5.074;2023-04-06T08:14:43;13.75;;;10.30;;
18657;SDS011;9458;50.942;5.074;2023-04-06T08:17:12;17.25;;;9.88;;
18657;SDS011;9458;50.942;5.074;2023-04-06T08:19:41;15.35;;;10.32;;
18657;SDS011;9458;50.942;5.074;2023-04-06T08:22:09;16.02;;;10.13;;
18657;SDS011;9458;50.942;5.074;2023-04-06T08:24:36;16.73;;;10.07;;
18657;SDS011;9458;50.942;5.074;2023-04-06T08:27:05;15.77;;;9.90;;
18657;SDS011;9458;50.942;5.074;2023-04-06T08:29:33;13.70;;;9.82;;
18657;SDS011;9458;50.942;5.074;2023-04-06T08:32:00;15.27;;;10.70;;
18657;SDS011;9458;50.942;5.074;2023-04-06T08:34:33;15.98;;;10.70;;
18657;SDS011;9458;50.942;5.074;2023-04-06T08:37:00;15.70;;;10.05;;
18657;SDS011;9458;50.942;5.074;2023-04-06T08:39:28;13.93;;;10.07;;
18657;SDS011;9458;50.942;5.074;2023-04-06T08:41:56;15.70;;;11.70;;
18657;SDS011;9458;50.942;5.074;2023-04-06T08:44:25;17.40;;;11.02;;
18657;SDS011;9458;50.942;5.074;2023-04-06T08:46:52;16.00;;;10.50;;
18657;SDS011;9458;50.942;5.074;2023-04-06T08:49:21;14.93;;;9.90;;
18657;SDS011;9458;50.942;5.074;2023-04-06T08:51:50;12.77;;;9.35;;
18657;SDS011;9458;50.942;5.074;2023-04-06T08:54:18;14.43;;;9.35;;
18657;SDS011;9458;50.942;5.074;2023-04-06T08:56:46;16.40;;;10.43;;
18657;SDS011;9458;50.942;5.074;2023-04-06T08:59:15;15.05;;;9.68;;
18657;SDS011;9458;50.942;5.074;2023-04-06T09:01:43;18.45;;;10.13;;
18657;SDS011;9458;50.942;5.074;2023-04-06T09:04:13;16.73;;;10.25;;
18657;SDS011;9458;50.942;5.074;2023-04-06T09:06:40;15.70;;;9.60;;
18657;SDS011;9458;50.942;5.074;2023-04-06T09:09:11;14.70;;;9.60;;
18657;SDS011;9458;50.942;5.074;2023-04-06T09:11:43;14.18;;;9.50;;
18657;SDS011;9458;50.942;5.074;2023-04-06T09:14:12;16.13;;;9.70;;
18657;SDS011;9458;50.942;5.074;2023-04-06T09:16:44;12.85;;;9.52;;
18657;SDS011;9458;50.942;5.074;2023-04-06T09:19:12;16.05;;;9.13;;
18657;SDS011;9458;50.942;5.074;2023-04-06T09:21:40;12.43;;;8.60;;
18657;SDS011;9458;50.942;5.074;2023-04-06T09:24:08;14.52;;;9.43;;
18657;SDS011;9458;50.942;5.074;2023-04-06T09:29:22;13.30;;;9.38;;
18657;SDS011;9458;50.942;5.074;2023-04-06T09:31:52;16.83;;;9.52;;
18657;SDS011;9458;50.942;5.074;2023-04-06T09:34:29;12.93;;;8.90;;
18657;SDS011;9458;50.942;5.074;2023-04-06T09:36:58;12.77;;;8.77;;
18657;SDS011;9458;50.942;5.074;2023-04-06T09:39:27;13.57;;;8.63;;
18657;SDS011;9458;50.942;5.074;2023-04-06T09:41:56;13.32;;;8.32;;
18657;SDS011;9458;50.942;5.074;2023-04-06T09:44:24;14.05;;;8.48;;
18657;SDS011;9458;50.942;5.074;2023-04-06T09:46:53;12.73;;;8.93;;
18657;SDS011;9458;50.942;5.074;2023-04-06T09:49:22;15.02;;;9.20;;
18657;SDS011;9458;50.942;5.074;2023-04-06T09:51:53;11.45;;;8.93;;
18657;SDS011;9458;50.942;5.074;2023-04-06T09:54:22;11.38;;;8.77;;
18657;SDS011;9458;50.942;5.074;2023-04-06T09:56:51;14.25;;;8.98;;
18657;SDS011;9458;50.942;5.074;2023-04-06T09:59:30;12.00;;;8.73;;
18657;SDS011;9458;50.942;5.074;2023-04-06T10:02:05;16.00;;;9.70;;
18657;SDS011;9458;50.942;5.074;2023-04-06T10:04:39;17.13;;;9.18;;
18657;SDS011;9458;50.942;5.074;2023-04-06T10:07:20;14.23;;;8.60;;
18657;SDS011;9458;50.942;5.074;2023-04-06T10:09:56;12.07;;;8.70;;
18657;SDS011;9458;50.942;5.074;2023-04-06T10:12:37;13.88;;;8.75;;
18657;SDS011;9458;50.942;5.074;2023-04-06T10:15:06;13.25;;;9.32;;
18657;SDS011;9458;50.942;5.074;2023-04-06T10:17:36;13.65;;;9.10;;
18657;SDS011;9458;50.942;5.074;2023-04-06T10:20:12;13.10;;;9.10;;
18657;SDS011;9458;50.942;5.074;2023-04-06T10:22:51;13.77;;;9.35;;
18657;SDS011;9458;50.942;5.074;2023-04-06T10:25:27;11.55;;;9.43;;
18657;SDS011;9458;50.942;5.074;2023-04-06T10:28:04;12.30;;;9.30;;
18657;SDS011;9458;50.942;5.074;2023-04-06T10:30:33;12.57;;;9.63;;
18657;SDS011;9458;50.942;5.074;2023-04-06T10:33:11;13.30;;;10.13;;
18657;SDS011;9458;50.942;5.074;2023-04-06T10:35:43;13.40;;;9.88;;
18657;SDS011;9458;50.942;5.074;2023-04-06T10:38:11;13.63;;;9.88;;
18657;SDS011;9458;50.942;5.074;2023-04-06T10:40:40;12.18;;;9.20;;
18657;SDS011;9458;50.942;5.074;2023-04-06T10:43:11;12.05;;;9.48;;
18657;SDS011;9458;50.942;5.074;2023-04-06T10:45:40;11.70;;;8.95;;
18657;SDS011;9458;50.942;5.074;2023-04-06T10:48:14;13.63;;;9.45;;
18657;SDS011;9458;50.942;5.074;2023-04-06T10:50:44;12.68;;;9.30;;
18657;SDS011;9458;50.942;5.074;2023-04-06T10:53:20;14.00;;;9.85;;
18657;SDS011;9458;50.942;5.074;2023-04-06T10:55:49;12.15;;;9.07;;
18657;SDS011;9458;50.942;5.074;2023-04-06T10:58:19;14.45;;;9.27;;
18657;SDS011;9458;50.942;5.074;2023-04-06T11:00:47;13.43;;;10.15;;
18657;SDS011;9458;50.942;5.074;2023-04-06T11:03:17;12.45;;;9.90;;
18657;SDS011;9458;50.942;5.074;2023-04-06T11:05:45;13.80;;;10.10;;
18657;SDS011;9458;50.942;5.074;2023-04-06T11:08:24;12.43;;;10.00;;
18657;SDS011;9458;50.942;5.074;2023-04-06T11:11:03;12.93;;;9.27;;
18657;SDS011;9458;50.942;5.074;2023-04-06T11:13:38;12.57;;;9.20;;
18657;SDS011;9458;50.942;5.074;2023-04-06T11:16:11;10.73;;;8.35;;
18657;SDS011;9458;50.942;5.074;2023-04-06T11:18:49;14.27;;;9.20;;
18657;SDS011;9458;50.942;5.074;2023-04-06T11:21:18;12.27;;;8.63;;
18657;SDS011;9458;50.942;5.074;2023-04-06T11:23:47;13.45;;;9.27;;
18657;SDS011;9458;50.942;5.074;2023-04-06T11:26:15;15.40;;;9.48;;
18657;SDS011;9458;50.942;5.074;2023-04-06T11:28:44;14.52;;;10.38;;
18657;SDS011;9458;50.942;5.074;2023-04-06T11:31:11;13.68;;;9.40;;
18657;SDS011;9458;50.942;5.074;2023-04-06T11:33:39;10.85;;;8.63;;
18657;SDS011;9458;50.942;5.074;2023-04-06T11:36:17;12.30;;;9.23;;
18657;SDS011;9458;50.942;5.074;2023-04-06T11:38:45;12.27;;;8.90;;
18657;SDS011;9458;50.942;5.074;2023-04-06T11:41:14;13.05;;;8.60;;
18657;SDS011;9458;50.942;5.074;2023-04-06T11:43:47;11.02;;;8.23;;
18657;SDS011;9458;50.942;5.074;2023-04-06T11:46:17;12.55;;;9.13;;
18657;SDS011;9458;50.942;5.074;2023-04-06T11:48:45;12.52;;;9.27;;
18657;SDS011;9458;50.942;5.074;2023-04-06T11:51:21;13.32;;;9.57;;
18657;SDS011;9458;50.942;5.074;2023-04-06T11:53:49;10.90;;;7.68;;
18657;SDS011;9458;50.942;5.074;2023-04-06T11:56:24;12.23;;;8.93;;
18657;SDS011;9458;50.942;5.074;2023-04-06T11:58:58;10.75;;;8.90;;
18657;SDS011;9458;50.942;5.074;2023-04-06T12:01:25;13.77;;;8.90;;
18657;SDS011;9458;50.942;5.074;2023-04-06T12:03:53;11.82;;;8.63;;
18657;SDS011;9458;50.942;5.074;2023-04-06T12:06:21;11.70;;;8.80;;
18657;SDS011;9458;50.942;5.074;2023-04-06T12:08:49;11.88;;;8.60;;
18657;SDS011;9458;50.942;5.074;2023-04-06T12:11:17;11.63;;;8.48;;
18657;SDS011;9458;50.942;5.074;2023-04-06T12:13:45;11.63;;;8.63;;
18657;SDS011;9458;50.942;5.074;2023-04-06T12:16:16;11.15;;;8.52;;
18657;SDS011;9458;50.942;5.074;2023-04-06T12:18:45;12.05;;;8.57;;
18657;SDS011;9458;50.942;5.074;2023-04-06T12:21:13;10.32;;;8.38;;
18657;SDS011;9458;50.942;5.074;2023-04-06T12:23:40;10.88;;;8.27;;
18657;SDS011;9458;50.942;5.074;2023-04-06T12:26:07;11.52;;;7.80;;
18657;SDS011;9458;50.942;5.074;2023-04-06T12:28:36;14.52;;;8.48;;
18657;SDS011;9458;50.942;5.074;2023-04-06T12:31:04;10.60;;;8.02;;
18657;SDS011;9458;50.942;5.074;2023-04-06T12:33:33;13.38;;;8.75;;
18657;SDS011;9458;50.942;5.074;2023-04-06T12:36:01;12.43;;;8.40;;
18657;SDS011;9458;50.942;5.074;2023-04-06T12:38:29;11.38;;;8.38;;
18657;SDS011;9458;50.942;5.074;2023-04-06T12:40:57;12.52;;;8.85;;
18657;SDS011;9458;50.942;5.074;2023-04-06T12:43:24;13.35;;;8.95;;
18657;SDS011;9458;50.942;5.074;2023-04-06T12:45:52;11.48;;;8.43;;
18657;SDS011;9458;50.942;5.074;2023-04-06T12:48:20;12.07;;;8.50;;
18657;SDS011;9458;50.942;5.074;2023-04-06T12:50:55;12.77;;;9.13;;
18657;SDS011;9458;50.942;5.074;2023-04-06T12:53:26;12.82;;;9.00;;
18657;SDS011;9458;50.942;5.074;2023-04-06T12:55:54;13.55;;;9.32;;
18657;SDS011;9458;50.942;5.074;2023-04-06T12:58:24;11.52;;;8.88;;
18657;SDS011;9458;50.942;5.074;2023-04-06T13:00:53;12.15;;;9.00;;
18657;SDS011;9458;50.942;5.074;2023-04-06T13:03:22;12.35;;;8.68;;
18657;SDS011;9458;50.942;5.074;2023-04-06T13:05:50;11.10;;;9.30;;
18657;SDS011;9458;50.942;5.074;2023-04-06T13:08:20;10.77;;;8.60;;
18657;SDS011;9458;50.942;5.074;2023-04-06T13:10:49;12.00;;;8.57;;
18657;SDS011;9458;50.942;5.074;2023-04-06T13:13:18;10.23;;;8.68;;
18657;SDS011;9458;50.942;5.074;2023-04-06T13:15:51;14.70;;;9.57;;
18657;SDS011;9458;50.942;5.074;2023-04-06T13:18:18;11.77;;;8.80;;
18657;SDS011;9458;50.942;5.074;2023-04-06T13:20:48;11.23;;;8.85;;
18657;SDS011;9458;50.942;5.074;2023-04-06T13:23:16;11.27;;;8.20;;
18657;SDS011;9458;50.942;5.074;2023-04-06T13:25:46;11.95;;;8.43;;
18657;SDS011;9458;50.942;5.074;2023-04-06T13:28:13;11.30;;;8.65;;
18657;SDS011;9458;50.942;5.074;2023-04-06T13:30:43;10.38;;;8.02;;
18657;SDS011;9458;50.942;5.074;2023-04-06T13:33:15;11.55;;;8.57;;
18657;SDS011;9458;50.942;5.074;2023-04-06T13:35:44;10.63;;;8.57;;
18657;SDS011;9458;50.942;5.074;2023-04-06T13:38:15;12.38;;;9.38;;
18657;SDS011;9458;50.942;5.074;2023-04-06T13:40:43;10.70;;;8.52;;
18657;SDS011;9458;50.942;5.074;2023-04-06T13:43:12;12.93;;;9.07;;
18657;SDS011;9458;50.942;5.074;2023-04-06T13:45:41;10.55;;;9.02;;
18657;SDS011;9458;50.942;5.074;2023-04-06T13:48:18;11.52;;;9.57;;
18657;SDS011;9458;50.942;5.074;2023-04-06T13:50:45;12.02;;;9.07;;
18657;SDS011;9458;50.942;5.074;2023-04-06T13:53:14;13.00;;;9.55;;
18657;SDS011;9458;50.942;5.074;2023-04-06T13:55:43;12.70;;;9.95;;
18657;SDS011;9458;50.942;5.074;2023-04-06T13:58:12;12.85;;;9.77;;
18657;SDS011;9458;50.942;5.074;2023-04-06T14:00:39;14.60;;;10.13;;
18657;SDS011;9458;50.942;5.074;2023-04-06T14:03:17;12.45;;;10.45;;
18657;SDS011;9458;50.942;5.074;2023-04-06T14:05:46;14.13;;;10.15;;
18657;SDS011;9458;50.942;5.074;2023-04-06T14:08:14;14.43;;;10.75;;
18657;SDS011;9458;50.942;5.074;2023-04-06T14:10:42;12.43;;;10.30;;
18657;SDS011;9458;50.942;5.074;2023-04-06T14:13:13;14.20;;;10.65;;
18657;SDS011;9458;50.942;5.074;2023-04-06T14:15:41;12.82;;;10.45;;
18657;SDS011;9458;50.942;5.074;2023-04-06T14:18:09;12.25;;;10.52;;
18657;SDS011;9458;50.942;5.074;2023-04-06T14:20:37;14.25;;;11.30;;
18657;SDS011;9458;50.942;5.074;2023-04-06T14:23:04;15.02;;;11.90;;
18657;SDS011;9458;50.942;5.074;2023-04-06T14:25:32;14.43;;;11.68;;
18657;SDS011;9458;50.942;5.074;2023-04-06T14:28:03;14.85;;;11.45;;
18657;SDS011;9458;50.942;5.074;2023-04-06T14:30:32;15.02;;;12.27;;
18657;SDS011;9458;50.942;5.074;2023-04-06T14:32:59;13.80;;;11.25;;
18657;SDS011;9458;50.942;5.074;2023-04-06T14:35:27;14.07;;;12.23;;
18657;SDS011;9458;50.942;5.074;2023-04-06T14:37:57;15.23;;;11.95;;
18657;SDS011;9458;50.942;5.074;2023-04-06T14:40:26;14.02;;;10.93;;
18657;SDS011;9458;50.942;5.074;2023-04-06T14:42:54;15.02;;;11.30;;
18657;SDS011;9458;50.942;5.074;2023-04-06T14:45:22;13.38;;;11.00;;
18657;SDS011;9458;50.942;5.074;2023-04-06T14:47:50;14.55;;;11.57;;
18657;SDS011;9458;50.942;5.074;2023-04-06T14:50:18;13.40;;;11.27;;